createdAt,value
2023-03-24T00:02:03.145Z,100053.34
2023-03-24T00:04:29.836Z,100059.44
2023-03-24T00:06:56.532Z,100056.69
2023-03-24T00:09:23.236Z,100054.94
2023-03-24T00:11:49.881Z,100049.69
2023-03-24T00:14:18.966Z,100048.69
2023-03-24T00:16:46.720Z,100044.16
2023-03-24T00:19:16.228Z,100044.72
2023-03-24T00:21:44.103Z,100044.53
2023-03-24T00:24:11.706Z,100036.59
2023-03-24T00:26:43.126Z,100035.69
2023-03-24T00:29:11.843Z,100039.06
2023-03-24T00:31:40.557Z,100035.47
2023-03-24T00:34:08.827Z,100031.94
2023-03-24T00:36:36.120Z,100031.88
2023-03-24T00:39:03.032Z,100025.91
2023-03-24T00:41:30.142Z,100027.81
2023-03-24T00:43:58.567Z,100018.16
2023-03-24T00:46:29.378Z,100022.53
2023-03-24T00:49:05.825Z,100019.13
2023-03-24T00:51:34.480Z,100016.53
2023-03-24T00:54:02.194Z,100009.66
2023-03-24T00:56:31.540Z,100005.28
2023-03-24T00:59:02.694Z,100001.69
2023-03-24T01:01:33.228Z,100009.41
2023-03-24T01:04:00.307Z,100001.66
2023-03-24T01:06:30.189Z,100005.22
2023-03-24T01:08:56.941Z,100003.53
2023-03-24T01:11:25.348Z,99993.97
2023-03-24T01:13:53.821Z,99993.81
2023-03-24T01:16:25.891Z,99991.94
2023-03-24T01:18:53.055Z,99979.78
2023-03-24T01:21:19.912Z,99978.84
2023-03-24T01:23:49.512Z,99977.91
2023-03-24T01:26:16.208Z,99974.34
2023-03-24T01:28:43.862Z,99976.91
2023-03-24T01:31:11.567Z,99979.50
2023-03-24T01:33:38.466Z,99981.28
2023-03-24T01:36:07.972Z,99979.59
2023-03-24T01:38:35.434Z,99975.97
2023-03-24T01:41:03.128Z,99971.50
2023-03-24T01:43:33.255Z,99973.13
2023-03-24T01:46:08.285Z,99962.47
2023-03-24T01:48:57.113Z,99968.44
2023-03-24T01:51:25.512Z,99963.34
2023-03-24T01:54:01.849Z,99966.69
2023-03-24T01:56:29.100Z,99970.81
2023-03-24T01:58:56.976Z,99964.75
2023-03-24T02:01:30.968Z,99969.16
2023-03-24T02:04:09.145Z,99965.59
2023-03-24T02:06:41.259Z,99968.91
2023-03-24T02:09:10.515Z,99964.63
2023-03-24T02:11:37.865Z,99967.78
2023-03-24T02:14:06.465Z,99971.25
2023-03-24T02:16:34.369Z,99965.31
2023-03-24T02:19:20.037Z,99959.22
2023-03-24T02:21:59.242Z,99962.72
2023-03-24T02:24:25.908Z,99966.06
2023-03-24T02:26:52.856Z,99969.53
2023-03-24T02:29:29.924Z,99966.00
2023-03-24T02:31:58.954Z,99969.47
2023-03-24T02:34:47.605Z,99968.41
2023-03-24T02:37:33.957Z,99966.50
2023-03-24T02:40:17.096Z,99963.91
2023-03-24T02:43:03.142Z,99961.25
2023-03-24T02:45:35.518Z,99958.63
2023-03-24T02:48:21.124Z,99957.00
2023-03-24T02:50:51.324Z,99951.72
2023-03-24T02:53:41.347Z,99939.56
2023-03-24T02:56:30.186Z,99936.91
2023-03-24T02:59:10.138Z,99928.84
2023-03-24T03:01:43.628Z,99937.38
2023-03-24T03:04:33.293Z,99934.81
2023-03-24T03:07:02.802Z,99928.78
2023-03-24T03:09:29.566Z,99927.19
2023-03-24T03:11:58.611Z,99922.97
2023-03-24T03:14:27.747Z,99926.56
2023-03-24T03:17:06.328Z,99929.19
2023-03-24T03:19:34.099Z,99933.50
2023-03-24T03:22:04.181Z,99931.91
2023-03-24T03:24:32.544Z,99939.75
2023-03-24T03:27:05.712Z,99927.56
2023-03-24T03:29:34.197Z,99926.84
2023-03-24T03:32:10.488Z,99927.69
2023-03-24T03:34:37.727Z,99932.81
2023-03-24T03:37:24.787Z,99925.59
2023-03-24T03:39:59.141Z,99930.56
2023-03-24T03:42:29.263Z,99928.75
2023-03-24T03:44:56.169Z,99927.84
2023-03-24T03:47:25.344Z,99921.91
2023-03-24T03:49:54.296Z,99918.56
2023-03-24T03:52:20.973Z,99913.41
2023-03-24T03:54:49.522Z,99911.69
2023-03-24T03:57:16.452Z,99919.38
2023-03-24T04:00:12.152Z,99908.69
2023-03-24T04:02:52.650Z,99912.25
2023-03-24T04:05:52.595Z,99907.16
2023-03-24T04:08:25.136Z,99910.75
2023-03-24T04:11:01.104Z,99898.56
2023-03-24T04:13:36.405Z,99908.84
2023-03-24T04:16:29.239Z,99909.56
2023-03-24T04:19:10.478Z,99916.50
2023-03-24T04:21:43.229Z,99913.09
2023-03-24T04:24:19.717Z,99911.31
2023-03-24T04:26:54.720Z,99917.44
2023-03-24T04:29:26.758Z,99907.03
2023-03-24T04:31:54.548Z,99913.09
2023-03-24T04:34:42.153Z,99911.25
2023-03-24T04:37:42.003Z,99914.56
2023-03-24T04:40:14.954Z,99911.72
2023-03-24T04:42:42.847Z,99916.75
2023-03-24T04:45:12.713Z,99925.13
2023-03-24T04:47:58.967Z,99917.44
2023-03-24T04:50:57.449Z,99932.97
2023-03-24T04:53:28.810Z,99928.72
2023-03-24T04:55:58.633Z,99929.50
2023-03-24T04:58:45.767Z,99924.25
2023-03-24T05:01:14.278Z,99926.91
2023-03-24T05:03:47.942Z,99921.72
2023-03-24T05:06:17.538Z,99929.50
2023-03-24T05:08:49.188Z,99923.44
2023-03-24T05:11:16.361Z,99927.69
2023-03-24T05:13:49.145Z,99935.28
2023-03-24T05:16:18.496Z,99935.13
2023-03-24T05:18:57.865Z,99935.56
2023-03-24T05:21:25.401Z,99927.69
2023-03-24T05:23:52.744Z,99940.03
2023-03-24T05:26:22.359Z,99934.31
2023-03-24T05:29:05.185Z,99930.16
2023-03-24T05:31:31.950Z,99932.88
2023-03-24T05:34:05.477Z,99932.25
2023-03-24T05:36:38.506Z,99935.88
2023-03-24T05:39:05.616Z,99937.75
2023-03-24T05:41:42.038Z,99944.22
2023-03-24T05:44:08.678Z,99943.56
2023-03-24T05:46:38.355Z,99955.03
2023-03-24T05:49:05.057Z,99950.16
2023-03-24T05:51:35.219Z,99951.28
2023-03-24T05:54:06.357Z,99949.63
2023-03-24T05:56:40.058Z,99951.50
2023-03-24T05:59:21.339Z,99950.44
2023-03-24T06:02:10.553Z,99943.00
2023-03-24T06:04:49.324Z,99947.28
2023-03-24T06:07:22.291Z,99947.09
2023-03-24T06:09:51.344Z,99946.13
2023-03-24T06:12:21.657Z,99940.91
2023-03-24T06:15:03.758Z,99949.50
2023-03-24T06:17:32.170Z,99950.44
2023-03-24T06:20:05.690Z,99949.72
2023-03-24T06:22:44.694Z,99946.09
2023-03-24T06:25:15.376Z,99940.78
2023-03-24T06:27:47.599Z,99948.75
2023-03-24T06:30:18.926Z,99948.72
2023-03-24T06:32:48.194Z,99947.22
2023-03-24T06:35:18.356Z,99957.97
2023-03-24T06:37:51.802Z,99952.97
2023-03-24T06:40:19.676Z,99959.13
2023-03-24T06:42:54.777Z,99959.88
2023-03-24T06:45:26.335Z,99955.53
2023-03-24T06:47:56.314Z,99956.22
2023-03-24T06:50:31.242Z,99943.28
2023-03-24T06:52:58.058Z,99940.72
2023-03-24T06:55:27.361Z,99940.78
2023-03-24T06:57:54.373Z,99953.13
2023-03-24T07:00:45.171Z,99942.69
2023-03-24T07:03:35.062Z,99937.59
2023-03-24T07:06:18.490Z,99938.63
2023-03-24T07:08:49.901Z,99937.06
2023-03-24T07:11:16.730Z,99936.47
2023-03-24T07:13:52.953Z,99931.41
2023-03-24T07:16:19.725Z,99933.28
2023-03-24T07:18:50.293Z,99929.19
2023-03-24T07:21:18.300Z,99924.19
2023-03-24T07:23:48.641Z,99930.31
2023-03-24T07:26:17.221Z,99927.97
2023-03-24T07:28:49.095Z,99914.38
2023-03-24T07:31:38.348Z,99905.75
2023-03-24T07:34:08.431Z,99905.06
2023-03-24T07:36:37.358Z,99899.78
2023-03-24T07:39:09.512Z,99892.94
2023-03-24T07:41:39.306Z,99899.13
2023-03-24T07:44:14.488Z,99902.59
2023-03-24T07:46:48.719Z,99902.72
2023-03-24T07:49:19.799Z,99902.94
2023-03-24T07:52:12.677Z,99896.94
2023-03-24T07:54:47.749Z,99905.78
2023-03-24T07:57:37.390Z,99907.66
2023-03-24T08:00:18.167Z,99889.38
2023-03-24T08:02:57.528Z,99890.25
2023-03-24T08:05:43.521Z,99892.03
2023-03-24T08:08:21.683Z,99892.00
2023-03-24T08:10:50.584Z,99876.38
2023-03-24T08:13:20.076Z,99875.50
2023-03-24T08:15:47.001Z,99869.44
2023-03-24T08:18:16.418Z,99867.69
2023-03-24T08:20:44.227Z,99867.69
2023-03-24T08:23:11.253Z,99859.84
2023-03-24T08:25:40.355Z,99854.59
2023-03-24T08:28:07.681Z,99844.09
2023-03-24T08:30:36.848Z,99856.31
2023-03-24T08:33:06.681Z,99857.22
2023-03-24T08:35:34.349Z,99854.59
2023-03-24T08:38:06.908Z,99848.47
2023-03-24T08:40:36.873Z,99849.34
2023-03-24T08:43:08.953Z,99844.09
2023-03-24T08:45:38.336Z,99841.47
2023-03-24T08:48:05.835Z,99837.97
2023-03-24T08:50:34.606Z,99847.59
2023-03-24T08:53:01.352Z,99842.34
2023-03-24T08:55:33.713Z,99842.34
2023-03-24T08:58:00.642Z,99830.97
2023-03-24T09:00:29.061Z,99843.19
2023-03-24T09:03:01.428Z,99843.22
2023-03-24T09:05:43.844Z,99839.75
2023-03-24T09:08:11.363Z,99834.50
2023-03-24T09:10:38.833Z,99834.53
2023-03-24T09:13:05.699Z,99845.84
2023-03-24T09:15:32.565Z,99832.75
2023-03-24T09:17:59.203Z,99827.50
2023-03-24T09:20:28.820Z,99824.88
2023-03-24T09:22:56.208Z,99833.63
2023-03-24T09:25:23.070Z,99833.63
2023-03-24T09:27:50.443Z,99834.50
2023-03-24T09:30:17.899Z,99823.13
2023-03-24T09:32:52.964Z,99832.72
2023-03-24T09:35:19.875Z,99811.72
2023-03-24T09:37:47.353Z,99809.06
2023-03-24T09:40:21.491Z,99815.22
2023-03-24T09:42:52.634Z,99802.00
2023-03-24T09:45:20.453Z,99794.09
2023-03-24T09:47:52.905Z,99801.06
2023-03-24T09:50:24.184Z,99799.31
2023-03-24T09:52:52.186Z,99781.69
2023-03-24T09:55:25.767Z,99777.16
2023-03-24T09:57:55.370Z,99768.28
2023-03-24T10:00:28.436Z,99767.38
2023-03-24T10:02:59.478Z,99761.25
2023-03-24T10:05:37.872Z,99759.31
2023-03-24T10:08:16.434Z,99764.09
2023-03-24T10:11:06.384Z,99757.38
2023-03-24T10:13:40.856Z,99761.97
2023-03-24T10:16:09.834Z,99760.53
2023-03-24T10:18:55.947Z,99765.72
2023-03-24T10:21:24.890Z,99749.19
2023-03-24T10:23:54.993Z,99750.69
2023-03-24T10:26:31.895Z,99740.41
2023-03-24T10:29:13.880Z,99752.44
2023-03-24T10:31:42.630Z,99735.53
2023-03-24T10:34:10.794Z,99725.56
2023-03-24T10:36:39.438Z,99731.41
2023-03-24T10:39:18.996Z,99732.16
2023-03-24T10:41:52.028Z,99724.22
2023-03-24T10:44:18.669Z,99736.47
2023-03-24T10:46:48.528Z,99726.75
2023-03-24T10:49:15.172Z,99722.03
2023-03-24T10:51:46.678Z,99717.16
2023-03-24T10:54:18.814Z,99712.84
2023-03-24T10:57:05.913Z,99721.81
2023-03-24T10:59:34.446Z,99724.31
2023-03-24T11:02:10.473Z,99713.41
2023-03-24T11:04:39.320Z,99708.56
2023-03-24T11:07:11.174Z,99702.75
2023-03-24T11:09:44.887Z,99660.31
2023-03-24T11:12:26.716Z,99700.44
2023-03-24T11:15:10.496Z,99686.50
2023-03-24T11:17:45.552Z,99683.19
2023-03-24T11:20:18.990Z,99679.66
2023-03-24T11:22:56.116Z,99681.09
2023-03-24T11:25:25.687Z,99688.50
2023-03-24T11:27:56.995Z,99678.28
2023-03-24T11:30:23.651Z,99659.53
2023-03-24T11:32:50.442Z,99674.31
2023-03-24T11:35:20.441Z,99665.50
2023-03-24T11:37:47.239Z,99657.88
2023-03-24T11:40:16.860Z,99658.34
2023-03-24T11:42:46.694Z,99657.28
2023-03-24T11:45:32.228Z,99644.88
2023-03-24T11:47:59.292Z,99632.66
2023-03-24T11:50:30.169Z,99634.53
2023-03-24T11:52:56.771Z,99618.56
2023-03-24T11:55:23.330Z,99623.66
2023-03-24T11:57:58.948Z,99624.38
2023-03-24T12:00:32.304Z,99613.72
2023-03-24T12:03:20.174Z,99605.66
2023-03-24T12:05:58.199Z,99600.59
2023-03-24T12:08:28.076Z,99588.13
2023-03-24T12:11:00.391Z,99593.34
2023-03-24T12:13:39.302Z,99588.16
2023-03-24T12:16:16.053Z,99586.41
2023-03-24T12:18:54.747Z,99583.81
2023-03-24T12:21:42.590Z,99571.28
2023-03-24T12:24:12.247Z,99572.66
2023-03-24T12:26:41.380Z,99573.22
2023-03-24T12:29:20.447Z,99554.28
2023-03-24T12:32:13.466Z,99576.81
2023-03-24T12:34:46.304Z,99558.56
2023-03-24T12:37:22.285Z,99543.56
2023-03-24T12:39:49.254Z,99552.16
2023-03-24T12:42:16.302Z,99538.81
2023-03-24T12:44:44.566Z,99543.66
2023-03-24T12:47:30.133Z,99548.03
2023-03-24T12:50:15.491Z,99546.72
2023-03-24T12:53:16.389Z,99534.34
2023-03-24T12:55:52.353Z,99532.09
2023-03-24T12:58:28.262Z,99532.03
2023-03-24T13:00:58.559Z,99521.38
2023-03-24T13:03:30.897Z,99520.19
2023-03-24T13:06:07.262Z,99517.44
2023-03-24T13:08:41.481Z,99517.88
2023-03-24T13:11:09.148Z,99509.16
2023-03-24T13:13:40.529Z,99507.44
2023-03-24T13:16:09.148Z,99497.78
2023-03-24T13:18:47.219Z,99504.88
2023-03-24T13:21:17.584Z,99491.81
2023-03-24T13:23:59.554Z,99508.88
2023-03-24T13:26:45.187Z,99506.66
2023-03-24T13:29:17.425Z,99534.00
2023-03-24T13:31:45.589Z,99505.25
2023-03-24T13:34:41.893Z,99495.22
2023-03-24T13:37:13.524Z,99503.16
2023-03-24T13:39:43.636Z,99489.66
2023-03-24T13:42:24.880Z,99490.66
2023-03-24T13:44:51.520Z,99483.22
2023-03-24T13:47:23.649Z,99478.06
2023-03-24T13:50:08.406Z,99479.25
2023-03-24T13:52:38.399Z,99473.31
2023-03-24T13:55:14.106Z,99471.03
2023-03-24T13:57:41.465Z,99467.91
2023-03-24T14:00:14.404Z,99461.06
2023-03-24T14:02:43.085Z,99466.53
2023-03-24T14:05:10.987Z,99459.34
2023-03-24T14:07:43.737Z,99458.59
2023-03-24T14:10:16.667Z,99469.03
2023-03-24T14:12:53.923Z,99451.00
2023-03-24T14:15:32.968Z,99454.78
2023-03-24T14:18:20.463Z,99475.19
2023-03-24T14:20:58.673Z,99446.84
2023-03-24T14:23:53.229Z,99445.69
2023-03-24T14:26:20.183Z,99446.97
2023-03-24T14:28:52.552Z,99437.50
2023-03-24T14:31:19.258Z,99441.50
2023-03-24T14:33:55.255Z,99444.78
2023-03-24T14:36:48.268Z,99455.81
2023-03-24T14:39:33.297Z,99450.06
2023-03-24T14:42:04.201Z,99438.06
2023-03-24T14:44:55.081Z,99448.34
2023-03-24T14:47:22.443Z,99444.19
2023-03-24T14:49:52.160Z,99441.66
2023-03-24T14:52:27.926Z,99442.69
2023-03-24T14:54:55.303Z,99440.19
2023-03-24T14:57:26.917Z,99438.09
2023-03-24T15:00:01.224Z,99435.16
2023-03-24T15:02:35.770Z,99436.66
2023-03-24T15:05:17.946Z,99434.44
2023-03-24T15:07:46.290Z,99423.56
2023-03-24T15:10:16.814Z,99427.16
2023-03-24T15:12:46.865Z,99421.25
2023-03-24T15:15:23.132Z,99419.06
2023-03-24T15:17:53.139Z,99418.94
2023-03-24T15:20:24.315Z,99413.75
2023-03-24T15:22:55.419Z,99406.72
2023-03-24T15:25:28.345Z,99407.06
2023-03-24T15:27:55.861Z,99397.91
2023-03-24T15:30:22.596Z,99408.63
2023-03-24T15:32:51.714Z,99406.72
2023-03-24T15:35:20.388Z,99410.06
2023-03-24T15:37:51.353Z,99407.03
2023-03-24T15:40:27.384Z,99414.75
2023-03-24T15:42:54.747Z,99417.97
2023-03-24T15:45:28.742Z,99403.25
2023-03-24T15:47:55.889Z,99418.59
2023-03-24T15:50:35.755Z,99418.69
2023-03-24T15:53:03.835Z,99401.75
2023-03-24T15:55:31.929Z,99401.44
2023-03-24T15:58:00.488Z,99398.38
2023-03-24T16:00:39.514Z,99394.50
2023-03-24T16:03:06.996Z,99398.69
2023-03-24T16:05:37.510Z,99406.25
2023-03-24T16:08:07.273Z,99408.38
2023-03-24T16:10:42.665Z,99408.34
2023-03-24T16:13:15.636Z,99403.66
2023-03-24T16:15:45.320Z,99400.09
2023-03-24T16:18:24.586Z,99398.06
2023-03-24T16:20:53.392Z,99404.81
2023-03-24T16:23:31.760Z,99399.09
2023-03-24T16:25:59.057Z,99402.28
2023-03-24T16:28:25.804Z,99400.69
2023-03-24T16:30:57.208Z,99402.69
2023-03-24T16:33:24.124Z,99401.28
2023-03-24T16:35:58.098Z,99389.84
2023-03-24T16:38:25.507Z,99386.44
2023-03-24T16:40:53.013Z,99394.34
2023-03-24T16:43:19.965Z,99392.63
2023-03-24T16:45:47.134Z,99393.72
2023-03-24T16:48:23.042Z,99389.28
2023-03-24T16:50:51.751Z,99394.66
2023-03-24T16:53:18.669Z,99392.00
2023-03-24T16:55:47.777Z,99387.72
2023-03-24T16:58:14.853Z,99382.66
2023-03-24T17:00:43.983Z,99384.41
2023-03-24T17:03:10.851Z,99394.06
2023-03-24T17:05:39.970Z,99379.16
2023-03-24T17:08:11.724Z,99381.00
2023-03-24T17:10:38.558Z,99390.72
2023-03-24T17:13:09.914Z,99381.94
2023-03-24T17:15:38.622Z,99384.63
2023-03-24T17:18:14.308Z,99384.81
2023-03-24T17:20:41.874Z,99380.59
2023-03-24T17:23:12.802Z,99377.97
2023-03-24T17:25:39.816Z,99372.63
2023-03-24T17:28:09.826Z,99369.88
2023-03-24T17:30:36.806Z,99375.28
2023-03-24T17:33:07.413Z,99374.47
2023-03-24T17:35:34.494Z,99374.56
2023-03-24T17:38:01.174Z,99372.03
2023-03-24T17:40:27.850Z,99376.31
2023-03-24T17:42:59.711Z,99367.56
2023-03-24T17:45:26.410Z,99372.81
2023-03-24T17:47:55.900Z,99370.31
2023-03-24T17:50:22.693Z,99373.34
2023-03-24T17:52:49.825Z,99376.03
2023-03-24T17:55:18.993Z,99373.63
2023-03-24T17:57:45.967Z,99365.81
2023-03-24T18:00:16.557Z,99366.94
2023-03-24T18:02:43.266Z,99371.41
2023-03-24T18:05:12.859Z,99373.31
2023-03-24T18:07:42.714Z,99365.53
2023-03-24T18:10:09.895Z,99369.84
2023-03-24T18:12:37.139Z,99379.63
2023-03-24T18:15:05.177Z,99378.06
2023-03-24T18:17:32.243Z,99386.03
2023-03-24T18:20:10.346Z,99392.19
2023-03-24T18:22:37.839Z,99392.22
2023-03-24T18:25:04.581Z,99390.53
2023-03-24T18:27:31.375Z,99380.06
2023-03-24T18:30:00.443Z,99383.69
2023-03-24T18:32:27.269Z,99389.00
2023-03-24T18:34:54.240Z,99385.44
2023-03-24T18:37:23.254Z,99377.59
2023-03-24T18:39:52.362Z,99383.72
2023-03-24T18:42:19.025Z,99383.72
2023-03-24T18:44:46.138Z,99393.50
2023-03-24T18:47:13.312Z,99391.13
2023-03-24T18:49:42.426Z,99392.25
2023-03-24T18:52:11.475Z,99393.16
2023-03-24T18:54:38.049Z,99386.16
2023-03-24T18:57:08.749Z,99386.25
2023-03-24T18:59:35.499Z,99387.94
2023-03-24T19:02:04.824Z,99385.16
2023-03-24T19:04:31.785Z,99384.16
2023-03-24T19:07:00.568Z,99384.84
2023-03-24T19:09:27.415Z,99385.72
2023-03-24T19:11:54.102Z,99374.28
2023-03-24T19:14:21.105Z,99378.63
2023-03-24T19:16:49.869Z,99368.16
2023-03-24T19:19:18.497Z,99369.03
2023-03-24T19:21:47.354Z,99366.50
2023-03-24T19:24:13.999Z,99361.44
2023-03-24T19:26:40.608Z,99362.19
2023-03-24T19:29:09.621Z,99364.66
2023-03-24T19:31:36.528Z,99361.16
2023-03-24T19:34:05.761Z,99362.91
2023-03-24T19:36:37.001Z,99368.00
2023-03-24T19:39:08.959Z,99361.25
2023-03-24T19:41:38.102Z,99363.88
2023-03-24T19:44:07.150Z,99363.00
2023-03-24T19:46:36.302Z,99368.94
2023-03-24T19:49:05.462Z,99365.25
2023-03-24T19:51:32.472Z,99368.91
2023-03-24T19:53:59.120Z,99368.91
2023-03-24T19:56:25.911Z,99362.75
2023-03-24T19:58:54.996Z,99357.56
2023-03-24T20:01:24.074Z,99351.50
2023-03-24T20:03:51.596Z,99354.13
2023-03-24T20:06:20.798Z,99354.09
2023-03-24T20:08:47.462Z,99342.72
2023-03-24T20:11:16.661Z,99337.78
2023-03-24T20:13:43.238Z,99334.59
2023-03-24T20:16:10.020Z,99343.41
2023-03-24T20:18:39.003Z,99343.50
2023-03-24T20:21:09.209Z,99350.63
2023-03-24T20:23:35.972Z,99350.91
2023-03-24T20:26:04.170Z,99362.31
2023-03-24T20:28:33.228Z,99385.28
2023-03-24T20:31:03.274Z,99394.50
2023-03-24T20:33:30.261Z,99398.25
2023-03-24T20:35:59.354Z,99385.31
2023-03-24T20:38:26.672Z,99385.34
2023-03-24T20:40:57.343Z,99378.22
2023-03-24T20:43:24.250Z,99379.06
2023-03-24T20:45:59.468Z,99387.69
2023-03-24T20:48:26.596Z,99383.28
2023-03-24T20:50:53.196Z,99391.22
2023-03-24T20:53:25.021Z,99386.81
2023-03-24T20:56:01.617Z,99383.25
2023-03-24T20:58:29.017Z,99365.72
2023-03-24T21:00:58.273Z,99364.00
2023-03-24T21:03:25.364Z,99364.94
2023-03-24T21:05:52.484Z,99365.03
2023-03-24T21:08:19.400Z,99368.59
2023-03-24T21:10:45.994Z,99372.16
2023-03-24T21:13:16.871Z,99376.53
2023-03-24T21:15:46.428Z,99380.03
2023-03-24T21:18:13.087Z,99394.19
2023-03-24T21:20:47.304Z,99387.25
2023-03-24T21:23:13.873Z,99388.16
2023-03-24T21:25:40.557Z,99382.88
2023-03-24T21:28:07.131Z,99377.66
2023-03-24T21:30:33.800Z,99375.88
2023-03-24T21:33:00.912Z,99380.31
2023-03-24T21:35:28.076Z,99383.84
2023-03-24T21:37:54.793Z,99382.06
2023-03-24T21:40:25.079Z,99388.22
2023-03-24T21:42:53.241Z,99386.56
2023-03-24T21:45:20.895Z,99385.75
2023-03-24T21:47:50.182Z,99384.13
2023-03-24T21:50:23.220Z,99396.44
2023-03-24T21:52:53.306Z,99394.78
2023-03-24T21:55:23.295Z,99401.84
2023-03-24T21:57:52.326Z,99398.25
2023-03-24T22:00:25.379Z,99404.34
2023-03-24T22:02:54.596Z,99398.31
2023-03-24T22:05:24.680Z,99401.78
2023-03-24T22:07:51.694Z,99405.28
2023-03-24T22:10:29.920Z,99407.94
2023-03-24T22:12:56.742Z,99408.84
2023-03-24T22:15:29.919Z,99404.47
2023-03-24T22:17:57.914Z,99405.34
2023-03-24T22:20:28.378Z,99412.34
2023-03-24T22:22:57.912Z,99402.69
2023-03-24T22:25:27.389Z,99405.31
2023-03-24T22:27:56.100Z,99395.78
2023-03-24T22:30:25.113Z,99395.75
2023-03-24T22:32:51.800Z,99404.44
2023-03-24T22:35:18.944Z,99393.06
2023-03-24T22:37:47.606Z,99393.94
2023-03-24T22:40:14.245Z,99392.19
2023-03-24T22:42:43.436Z,99388.69
2023-03-24T22:45:10.372Z,99384.28
2023-03-24T22:47:37.458Z,99379.88
2023-03-24T22:50:04.214Z,99370.25
2023-03-24T22:52:30.997Z,99379.88
2023-03-24T22:55:00.259Z,99380.78
2023-03-24T22:57:27.730Z,99382.56
2023-03-24T22:59:54.334Z,99386.03
2023-03-24T23:02:24.726Z,99381.66
2023-03-24T23:04:51.922Z,99386.09
2023-03-24T23:07:22.421Z,99388.69
2023-03-24T23:09:53.616Z,99376.38
2023-03-24T23:12:21.430Z,99377.31
2023-03-24T23:14:48.085Z,99379.03
2023-03-24T23:17:19.602Z,99367.69
2023-03-24T23:19:46.279Z,99376.41
2023-03-24T23:22:13.004Z,99374.66
2023-03-24T23:24:42.620Z,99372.88
2023-03-24T23:27:11.450Z,99372.88
2023-03-24T23:29:40.876Z,99374.69
2023-03-24T23:32:07.860Z,99367.75
2023-03-24T23:34:34.874Z,99361.72
2023-03-24T23:37:04.947Z,99362.66
2023-03-24T23:39:36.679Z,99360.06
2023-03-24T23:42:05.879Z,99360.88
2023-03-24T23:44:32.592Z,99353.94
2023-03-24T23:47:02.312Z,99353.94
2023-03-24T23:49:31.462Z,99348.72
2023-03-24T23:51:58.070Z,99347.81
2023-03-24T23:54:24.751Z,99347.84
2023-03-24T23:56:53.905Z,99351.31
2023-03-24T23:59:21.006Z,99345.94
